sensor_id;sensor_type;location;lat;lon;timestamp;P1;durP1;ratioP1;P2;durP2;ratioP2
73428;SDS011;61643;49.564;17.412;2024-01-15T00:00:44;8.43;;;3.40;;
73428;SDS011;61643;49.564;17.412;2024-01-15T00:03:09;7.95;;;3.20;;
73428;SDS011;61643;49.564;17.412;2024-01-15T00:05:36;8.40;;;3.38;;
73428;SDS011;61643;49.564;17.412;2024-01-15T00:08:02;7.63;;;3.10;;
73428;SDS011;61643;49.564;17.412;2024-01-15T00:10:28;8.57;;;3.55;;
73428;SDS011;61643;49.564;17.412;2024-01-15T00:12:54;8.63;;;3.40;;
73428;SDS011;61643;49.564;17.412;2024-01-15T00:15:20;8.93;;;3.50;;
73428;SDS011;61643;49.564;17.412;2024-01-15T00:17:46;7.35;;;2.80;;
73428;SDS011;61643;49.564;17.412;2024-01-15T00:20:12;8.30;;;2.85;;
73428;SDS011;61643;49.564;17.412;2024-01-15T00:22:39;4.43;;;2.53;;
73428;SDS011;61643;49.564;17.412;2024-01-15T00:25:05;6.90;;;3.00;;
73428;SDS011;61643;49.564;17.412;2024-01-15T00:27:31;8.13;;;3.30;;
73428;SDS011;61643;49.564;17.412;2024-01-15T00:29:57;4.80;;;2.58;;
73428;SDS011;61643;49.564;17.412;2024-01-15T00:32:23;5.75;;;2.72;;
73428;SDS011;61643;49.564;17.412;2024-01-15T00:34:49;6.97;;;3.20;;
73428;SDS011;61643;49.564;17.412;2024-01-15T00:37:16;6.90;;;3.15;;
73428;SDS011;61643;49.564;17.412;2024-01-15T00:39:42;6.13;;;3.20;;
73428;SDS011;61643;49.564;17.412;2024-01-15T00:42:08;7.13;;;3.22;;
73428;SDS011;61643;49.564;17.412;2024-01-15T00:44:34;8.48;;;2.90;;
73428;SDS011;61643;49.564;17.412;2024-01-15T00:47:00;6.20;;;2.90;;
73428;SDS011;61643;49.564;17.412;2024-01-15T00:49:27;5.78;;;2.90;;
73428;SDS011;61643;49.564;17.412;2024-01-15T00:51:53;6.70;;;2.55;;
73428;SDS011;61643;49.564;17.412;2024-01-15T00:54:19;5.88;;;2.85;;
73428;SDS011;61643;49.564;17.412;2024-01-15T00:56:45;6.40;;;3.22;;
73428;SDS011;61643;49.564;17.412;2024-01-15T00:59:11;5.50;;;2.63;;
73428;SDS011;61643;49.564;17.412;2024-01-15T01:01:40;6.07;;;2.83;;
73428;SDS011;61643;49.564;17.412;2024-01-15T01:04:09;8.73;;;3.28;;
73428;SDS011;61643;49.564;17.412;2024-01-15T01:06:35;7.70;;;3.33;;
73428;SDS011;61643;49.564;17.412;2024-01-15T01:09:01;8.70;;;3.50;;
73428;SDS011;61643;49.564;17.412;2024-01-15T01:11:27;6.63;;;3.03;;
73428;SDS011;61643;49.564;17.412;2024-01-15T01:13:53;8.57;;;3.10;;
73428;SDS011;61643;49.564;17.412;2024-01-15T01:16:19;8.95;;;3.85;;
73428;SDS011;61643;49.564;17.412;2024-01-15T01:18:45;8.52;;;3.25;;
73428;SDS011;61643;49.564;17.412;2024-01-15T01:21:11;8.20;;;3.20;;
73428;SDS011;61643;49.564;17.412;2024-01-15T01:23:37;7.28;;;3.10;;
73428;SDS011;61643;49.564;17.412;2024-01-15T01:26:03;8.20;;;3.65;;
73428;SDS011;61643;49.564;17.412;2024-01-15T01:28:29;6.88;;;2.85;;
73428;SDS011;61643;49.564;17.412;2024-01-15T01:30:55;7.18;;;3.55;;
73428;SDS011;61643;49.564;17.412;2024-01-15T01:33:20;6.85;;;3.03;;
73428;SDS011;61643;49.564;17.412;2024-01-15T01:35:46;7.88;;;3.75;;
73428;SDS011;61643;49.564;17.412;2024-01-15T01:38:13;10.63;;;3.88;;
73428;SDS011;61643;49.564;17.412;2024-01-15T01:40:39;6.15;;;3.08;;
73428;SDS011;61643;49.564;17.412;2024-01-15T01:43:05;7.57;;;3.17;;
73428;SDS011;61643;49.564;17.412;2024-01-15T01:45:31;6.40;;;2.72;;
73428;SDS011;61643;49.564;17.412;2024-01-15T01:47:57;7.10;;;2.67;;
73428;SDS011;61643;49.564;17.412;2024-01-15T01:50:23;8.00;;;3.38;;
73428;SDS011;61643;49.564;17.412;2024-01-15T01:52:49;8.60;;;3.40;;
73428;SDS011;61643;49.564;17.412;2024-01-15T01:55:16;8.35;;;3.45;;
73428;SDS011;61643;49.564;17.412;2024-01-15T01:57:43;8.38;;;3.22;;
73428;SDS011;61643;49.564;17.412;2024-01-15T02:00:10;9.00;;;3.28;;
73428;SDS011;61643;49.564;17.412;2024-01-15T02:02:36;6.28;;;3.00;;
73428;SDS011;61643;49.564;17.412;2024-01-15T02:05:04;11.15;;;3.67;;
73428;SDS011;61643;49.564;17.412;2024-01-15T02:07:31;8.40;;;3.88;;
73428;SDS011;61643;49.564;17.412;2024-01-15T02:10:00;9.75;;;3.95;;
73428;SDS011;61643;49.564;17.412;2024-01-15T02:12:26;6.50;;;3.33;;
73428;SDS011;61643;49.564;17.412;2024-01-15T02:14:52;8.98;;;3.42;;
73428;SDS011;61643;49.564;17.412;2024-01-15T02:17:18;9.15;;;3.67;;
73428;SDS011;61643;49.564;17.412;2024-01-15T02:19:44;7.20;;;3.70;;
73428;SDS011;61643;49.564;17.412;2024-01-15T02:22:10;9.30;;;4.13;;
73428;SDS011;61643;49.564;17.412;2024-01-15T02:24:36;9.63;;;3.58;;
73428;SDS011;61643;49.564;17.412;2024-01-15T02:27:02;10.20;;;3.92;;
73428;SDS011;61643;49.564;17.412;2024-01-15T02:29:28;7.85;;;3.83;;
73428;SDS011;61643;49.564;17.412;2024-01-15T02:31:54;10.38;;;3.92;;
73428;SDS011;61643;49.564;17.412;2024-01-15T02:34:20;8.68;;;3.15;;
73428;SDS011;61643;49.564;17.412;2024-01-15T02:36:46;7.40;;;3.45;;
73428;SDS011;61643;49.564;17.412;2024-01-15T02:39:12;9.40;;;3.78;;
73428;SDS011;61643;49.564;17.412;2024-01-15T02:41:38;9.23;;;4.10;;
73428;SDS011;61643;49.564;17.412;2024-01-15T02:44:04;9.48;;;4.00;;
73428;SDS011;61643;49.564;17.412;2024-01-15T02:46:30;10.20;;;4.18;;
73428;SDS011;61643;49.564;17.412;2024-01-15T02:48:56;12.55;;;4.45;;
73428;SDS011;61643;49.564;17.412;2024-01-15T02:51:22;8.60;;;3.95;;
73428;SDS011;61643;49.564;17.412;2024-01-15T02:53:48;9.63;;;3.85;;
73428;SDS011;61643;49.564;17.412;2024-01-15T02:56:15;10.45;;;4.15;;
73428;SDS011;61643;49.564;17.412;2024-01-15T02:58:41;10.95;;;4.50;;
73428;SDS011;61643;49.564;17.412;2024-01-15T03:01:07;10.27;;;4.25;;
73428;SDS011;61643;49.564;17.412;2024-01-15T03:03:33;10.48;;;4.05;;
73428;SDS011;61643;49.564;17.412;2024-01-15T03:05:59;10.55;;;4.20;;
73428;SDS011;61643;49.564;17.412;2024-01-15T03:08:27;8.60;;;4.18;;
73428;SDS011;61643;49.564;17.412;2024-01-15T03:10:54;8.38;;;3.97;;
73428;SDS011;61643;49.564;17.412;2024-01-15T03:13:20;8.57;;;3.95;;
73428;SDS011;61643;49.564;17.412;2024-01-15T03:15:46;11.75;;;4.45;;
73428;SDS011;61643;49.564;17.412;2024-01-15T03:18:12;9.52;;;4.45;;
73428;SDS011;61643;49.564;17.412;2024-01-15T03:20:39;8.27;;;3.38;;
73428;SDS011;61643;49.564;17.412;2024-01-15T03:23:05;9.75;;;4.32;;
73428;SDS011;61643;49.564;17.412;2024-01-15T03:25:31;9.52;;;4.10;;
73428;SDS011;61643;49.564;17.412;2024-01-15T03:27:57;11.07;;;3.53;;
73428;SDS011;61643;49.564;17.412;2024-01-15T03:30:22;8.95;;;3.80;;
73428;SDS011;61643;49.564;17.412;2024-01-15T03:32:48;9.13;;;3.63;;
73428;SDS011;61643;49.564;17.412;2024-01-15T03:35:15;11.35;;;4.00;;
73428;SDS011;61643;49.564;17.412;2024-01-15T03:37:41;11.52;;;4.25;;
73428;SDS011;61643;49.564;17.412;2024-01-15T03:40:08;10.35;;;3.67;;
73428;SDS011;61643;49.564;17.412;2024-01-15T03:42:34;7.97;;;3.55;;
73428;SDS011;61643;49.564;17.412;2024-01-15T03:45:00;9.15;;;3.53;;
73428;SDS011;61643;49.564;17.412;2024-01-15T03:47:26;8.38;;;3.75;;
73428;SDS011;61643;49.564;17.412;2024-01-15T03:49:52;9.00;;;3.50;;
73428;SDS011;61643;49.564;17.412;2024-01-15T03:52:18;8.93;;;3.65;;
73428;SDS011;61643;49.564;17.412;2024-01-15T03:54:44;7.30;;;3.63;;
73428;SDS011;61643;49.564;17.412;2024-01-15T03:57:10;11.32;;;4.25;;
73428;SDS011;61643;49.564;17.412;2024-01-15T03:59:36;10.60;;;4.15;;
73428;SDS011;61643;49.564;17.412;2024-01-15T04:02:02;11.13;;;4.40;;
73428;SDS011;61643;49.564;17.412;2024-01-15T04:04:28;11.32;;;5.03;;
73428;SDS011;61643;49.564;17.412;2024-01-15T04:06:54;11.63;;;4.53;;
73428;SDS011;61643;49.564;17.412;2024-01-15T04:09:20;9.23;;;3.80;;
73428;SDS011;61643;49.564;17.412;2024-01-15T04:11:45;10.95;;;4.00;;
73428;SDS011;61643;49.564;17.412;2024-01-15T04:14:11;10.60;;;4.43;;
73428;SDS011;61643;49.564;17.412;2024-01-15T04:16:37;12.65;;;4.85;;
73428;SDS011;61643;49.564;17.412;2024-01-15T04:19:03;11.30;;;4.20;;
73428;SDS011;61643;49.564;17.412;2024-01-15T04:21:29;11.35;;;4.80;;
73428;SDS011;61643;49.564;17.412;2024-01-15T04:23:55;10.77;;;4.47;;
73428;SDS011;61643;49.564;17.412;2024-01-15T04:26:21;10.95;;;4.20;;
73428;SDS011;61643;49.564;17.412;2024-01-15T04:28:47;10.15;;;3.95;;
73428;SDS011;61643;49.564;17.412;2024-01-15T04:31:25;9.82;;;4.30;;
73428;SDS011;61643;49.564;17.412;2024-01-15T04:33:54;10.45;;;4.38;;
73428;SDS011;61643;49.564;17.412;2024-01-15T04:36:20;11.85;;;4.70;;
73428;SDS011;61643;49.564;17.412;2024-01-15T04:38:46;10.13;;;3.97;;
73428;SDS011;61643;49.564;17.412;2024-01-15T04:41:13;9.88;;;4.40;;
73428;SDS011;61643;49.564;17.412;2024-01-15T04:43:39;12.82;;;4.78;;
73428;SDS011;61643;49.564;17.412;2024-01-15T04:46:06;10.93;;;4.35;;
73428;SDS011;61643;49.564;17.412;2024-01-15T04:48:32;9.40;;;4.25;;
73428;SDS011;61643;49.564;17.412;2024-01-15T04:50:58;10.70;;;4.13;;
73428;SDS011;61643;49.564;17.412;2024-01-15T04:53:25;12.43;;;5.03;;
73428;SDS011;61643;49.564;17.412;2024-01-15T04:55:51;9.48;;;4.38;;
73428;SDS011;61643;49.564;17.412;2024-01-15T04:58:17;14.20;;;5.32;;
73428;SDS011;61643;49.564;17.412;2024-01-15T05:00:43;13.10;;;4.38;;
73428;SDS011;61643;49.564;17.412;2024-01-15T05:03:09;11.07;;;4.57;;
73428;SDS011;61643;49.564;17.412;2024-01-15T05:05:35;8.60;;;4.13;;
73428;SDS011;61643;49.564;17.412;2024-01-15T05:08:01;11.52;;;4.55;;
73428;SDS011;61643;49.564;17.412;2024-01-15T05:10:27;12.50;;;4.68;;
73428;SDS011;61643;49.564;17.412;2024-01-15T05:12:53;12.10;;;5.13;;
73428;SDS011;61643;49.564;17.412;2024-01-15T05:15:19;10.88;;;4.65;;
73428;SDS011;61643;49.564;17.412;2024-01-15T05:17:45;10.68;;;4.57;;
73428;SDS011;61643;49.564;17.412;2024-01-15T05:20:11;9.35;;;4.75;;
73428;SDS011;61643;49.564;17.412;2024-01-15T05:22:37;12.65;;;5.03;;
73428;SDS011;61643;49.564;17.412;2024-01-15T05:25:03;10.23;;;4.63;;
73428;SDS011;61643;49.564;17.412;2024-01-15T05:27:29;11.88;;;4.63;;
73428;SDS011;61643;49.564;17.412;2024-01-15T05:29:55;11.98;;;4.68;;
73428;SDS011;61643;49.564;17.412;2024-01-15T05:32:21;11.65;;;4.85;;
73428;SDS011;61643;49.564;17.412;2024-01-15T05:34:47;9.95;;;4.63;;
73428;SDS011;61643;49.564;17.412;2024-01-15T05:37:13;11.02;;;4.80;;
73428;SDS011;61643;49.564;17.412;2024-01-15T05:39:39;13.82;;;5.68;;
73428;SDS011;61643;49.564;17.412;2024-01-15T05:42:05;14.43;;;5.78;;
73428;SDS011;61643;49.564;17.412;2024-01-15T05:44:31;12.68;;;4.75;;
73428;SDS011;61643;49.564;17.412;2024-01-15T05:46:57;11.30;;;5.20;;
73428;SDS011;61643;49.564;17.412;2024-01-15T05:49:23;12.15;;;4.88;;
73428;SDS011;61643;49.564;17.412;2024-01-15T05:51:49;12.82;;;5.20;;
73428;SDS011;61643;49.564;17.412;2024-01-15T05:54:15;15.48;;;4.80;;
73428;SDS011;61643;49.564;17.412;2024-01-15T05:56:41;13.15;;;5.13;;
73428;SDS011;61643;49.564;17.412;2024-01-15T05:59:07;11.30;;;4.72;;
73428;SDS011;61643;49.564;17.412;2024-01-15T06:01:32;10.77;;;4.32;;
73428;SDS011;61643;49.564;17.412;2024-01-15T06:03:58;12.02;;;4.90;;
73428;SDS011;61643;49.564;17.412;2024-01-15T06:06:24;13.32;;;5.07;;
73428;SDS011;61643;49.564;17.412;2024-01-15T06:08:50;12.20;;;4.78;;
73428;SDS011;61643;49.564;17.412;2024-01-15T06:11:16;14.25;;;5.32;;
73428;SDS011;61643;49.564;17.412;2024-01-15T06:13:42;11.82;;;4.60;;
73428;SDS011;61643;49.564;17.412;2024-01-15T06:16:12;11.40;;;5.32;;
73428;SDS011;61643;49.564;17.412;2024-01-15T06:18:48;12.85;;;5.50;;
73428;SDS011;61643;49.564;17.412;2024-01-15T06:21:14;11.30;;;4.88;;
73428;SDS011;61643;49.564;17.412;2024-01-15T06:23:40;12.82;;;5.45;;
73428;SDS011;61643;49.564;17.412;2024-01-15T06:26:06;12.55;;;5.18;;
73428;SDS011;61643;49.564;17.412;2024-01-15T06:28:32;14.50;;;5.13;;
73428;SDS011;61643;49.564;17.412;2024-01-15T06:30:58;13.38;;;5.32;;
73428;SDS011;61643;49.564;17.412;2024-01-15T06:33:24;12.32;;;4.97;;
73428;SDS011;61643;49.564;17.412;2024-01-15T06:35:50;14.98;;;5.57;;
73428;SDS011;61643;49.564;17.412;2024-01-15T06:38:16;17.20;;;5.60;;
73428;SDS011;61643;49.564;17.412;2024-01-15T06:40:42;12.95;;;5.88;;
73428;SDS011;61643;49.564;17.412;2024-01-15T06:43:16;14.07;;;5.90;;
73428;SDS011;61643;49.564;17.412;2024-01-15T06:45:43;13.65;;;5.97;;
73428;SDS011;61643;49.564;17.412;2024-01-15T06:48:09;15.60;;;6.03;;
73428;SDS011;61643;49.564;17.412;2024-01-15T06:50:38;15.00;;;5.97;;
73428;SDS011;61643;49.564;17.412;2024-01-15T06:53:04;13.27;;;5.63;;
73428;SDS011;61643;49.564;17.412;2024-01-15T06:55:30;14.48;;;5.55;;
73428;SDS011;61643;49.564;17.412;2024-01-15T06:57:56;14.75;;;6.00;;
73428;SDS011;61643;49.564;17.412;2024-01-15T07:00:22;13.90;;;6.13;;
73428;SDS011;61643;49.564;17.412;2024-01-15T07:02:48;14.45;;;6.03;;
73428;SDS011;61643;49.564;17.412;2024-01-15T07:05:14;15.43;;;6.07;;
73428;SDS011;61643;49.564;17.412;2024-01-15T07:07:40;16.38;;;5.47;;
73428;SDS011;61643;49.564;17.412;2024-01-15T07:10:06;12.65;;;5.55;;
73428;SDS011;61643;49.564;17.412;2024-01-15T07:12:33;13.10;;;5.20;;
73428;SDS011;61643;49.564;17.412;2024-01-15T07:14:59;13.63;;;5.70;;
73428;SDS011;61643;49.564;17.412;2024-01-15T07:17:25;14.27;;;5.43;;
73428;SDS011;61643;49.564;17.412;2024-01-15T07:19:51;13.75;;;5.43;;
73428;SDS011;61643;49.564;17.412;2024-01-15T07:22:17;14.57;;;5.65;;
73428;SDS011;61643;49.564;17.412;2024-01-15T07:24:43;14.38;;;5.72;;
73428;SDS011;61643;49.564;17.412;2024-01-15T07:27:09;15.50;;;6.07;;
73428;SDS011;61643;49.564;17.412;2024-01-15T07:29:35;14.57;;;5.30;;
73428;SDS011;61643;49.564;17.412;2024-01-15T07:32:04;14.68;;;5.22;;
73428;SDS011;61643;49.564;17.412;2024-01-15T07:34:30;11.65;;;5.07;;
73428;SDS011;61643;49.564;17.412;2024-01-15T07:36:57;14.75;;;5.60;;
73428;SDS011;61643;49.564;17.412;2024-01-15T07:39:23;13.32;;;4.88;;
73428;SDS011;61643;49.564;17.412;2024-01-15T07:41:50;10.85;;;4.68;;
73428;SDS011;61643;49.564;17.412;2024-01-15T07:44:17;13.10;;;5.55;;
73428;SDS011;61643;49.564;17.412;2024-01-15T07:46:46;14.93;;;5.75;;
73428;SDS011;61643;49.564;17.412;2024-01-15T07:49:12;11.07;;;5.00;;
73428;SDS011;61643;49.564;17.412;2024-01-15T07:51:39;13.45;;;5.53;;
73428;SDS011;61643;49.564;17.412;2024-01-15T07:54:09;13.55;;;5.53;;
73428;SDS011;61643;49.564;17.412;2024-01-15T07:56:52;12.18;;;5.10;;
73428;SDS011;61643;49.564;17.412;2024-01-15T07:59:22;13.50;;;5.65;;
73428;SDS011;61643;49.564;17.412;2024-01-15T08:01:49;14.10;;;5.57;;
73428;SDS011;61643;49.564;17.412;2024-01-15T08:04:15;19.25;;;4.75;;
73428;SDS011;61643;49.564;17.412;2024-01-15T08:06:41;12.63;;;5.07;;
73428;SDS011;61643;49.564;17.412;2024-01-15T08:09:07;11.77;;;4.60;;
73428;SDS011;61643;49.564;17.412;2024-01-15T08:11:34;12.40;;;5.38;;
73428;SDS011;61643;49.564;17.412;2024-01-15T08:14:01;14.48;;;5.32;;
73428;SDS011;61643;49.564;17.412;2024-01-15T08:16:27;12.50;;;5.60;;
73428;SDS011;61643;49.564;17.412;2024-01-15T08:18:53;12.93;;;5.18;;
73428;SDS011;61643;49.564;17.412;2024-01-15T08:21:19;14.00;;;5.45;;
73428;SDS011;61643;49.564;17.412;2024-01-15T08:23:45;12.55;;;5.55;;
73428;SDS011;61643;49.564;17.412;2024-01-15T08:26:11;12.85;;;5.57;;
73428;SDS011;61643;49.564;17.412;2024-01-15T08:28:37;14.43;;;5.43;;
73428;SDS011;61643;49.564;17.412;2024-01-15T08:31:03;16.20;;;5.43;;
73428;SDS011;61643;49.564;17.412;2024-01-15T08:33:29;15.15;;;5.78;;
73428;SDS011;61643;49.564;17.412;2024-01-15T08:35:55;13.18;;;4.93;;
73428;SDS011;61643;49.564;17.412;2024-01-15T08:38:21;15.40;;;5.63;;
73428;SDS011;61643;49.564;17.412;2024-01-15T08:40:48;16.05;;;5.70;;
73428;SDS011;61643;49.564;17.412;2024-01-15T08:43:15;16.00;;;5.90;;
73428;SDS011;61643;49.564;17.412;2024-01-15T08:45:41;15.15;;;5.50;;
73428;SDS011;61643;49.564;17.412;2024-01-15T08:48:06;10.50;;;5.05;;
73428;SDS011;61643;49.564;17.412;2024-01-15T08:50:32;17.40;;;5.93;;
73428;SDS011;61643;49.564;17.412;2024-01-15T08:52:59;15.82;;;5.65;;
73428;SDS011;61643;49.564;17.412;2024-01-15T08:55:25;14.48;;;5.53;;
73428;SDS011;61643;49.564;17.412;2024-01-15T08:57:50;15.77;;;5.85;;
73428;SDS011;61643;49.564;17.412;2024-01-15T09:00:17;15.70;;;5.88;;
73428;SDS011;61643;49.564;17.412;2024-01-15T09:02:43;13.32;;;5.70;;
73428;SDS011;61643;49.564;17.412;2024-01-15T09:05:09;11.57;;;5.00;;
73428;SDS011;61643;49.564;17.412;2024-01-15T09:07:35;14.05;;;5.47;;
73428;SDS011;61643;49.564;17.412;2024-01-15T09:10:01;14.77;;;5.68;;
73428;SDS011;61643;49.564;17.412;2024-01-15T09:12:28;14.05;;;5.15;;
73428;SDS011;61643;49.564;17.412;2024-01-15T09:14:54;14.75;;;5.18;;
73428;SDS011;61643;49.564;17.412;2024-01-15T09:17:21;15.35;;;5.15;;
73428;SDS011;61643;49.564;17.412;2024-01-15T09:19:49;14.18;;;5.28;;
73428;SDS011;61643;49.564;17.412;2024-01-15T09:22:15;13.27;;;4.80;;
73428;SDS011;61643;49.564;17.412;2024-01-15T09:24:44;12.65;;;4.93;;
73428;SDS011;61643;49.564;17.412;2024-01-15T09:27:11;14.40;;;5.78;;
73428;SDS011;61643;49.564;17.412;2024-01-15T09:29:37;13.82;;;5.25;;
73428;SDS011;61643;49.564;17.412;2024-01-15T09:32:05;16.55;;;6.20;;
73428;SDS011;61643;49.564;17.412;2024-01-15T09:34:35;14.98;;;5.45;;
73428;SDS011;61643;49.564;17.412;2024-01-15T09:37:01;15.15;;;6.63;;
73428;SDS011;61643;49.564;17.412;2024-01-15T09:39:29;14.45;;;5.60;;
73428;SDS011;61643;49.564;17.412;2024-01-15T09:41:56;15.10;;;5.78;;
73428;SDS011;61643;49.564;17.412;2024-01-15T09:44:23;15.23;;;6.07;;
73428;SDS011;61643;49.564;17.412;2024-01-15T09:46:49;15.20;;;5.43;;
73428;SDS011;61643;49.564;17.412;2024-01-15T09:49:16;14.88;;;5.63;;
73428;SDS011;61643;49.564;17.412;2024-01-15T09:51:42;13.05;;;4.70;;
73428;SDS011;61643;49.564;17.412;2024-01-15T09:54:09;12.98;;;4.80;;
73428;SDS011;61643;49.564;17.412;2024-01-15T09:56:35;12.45;;;4.68;;
73428;SDS011;61643;49.564;17.412;2024-01-15T09:59:01;11.52;;;4.25;;
73428;SDS011;61643;49.564;17.412;2024-01-15T10:01:30;14.60;;;5.97;;
73428;SDS011;61643;49.564;17.412;2024-01-15T10:03:57;13.95;;;5.60;;
73428;SDS011;61643;49.564;17.412;2024-01-15T10:06:24;13.98;;;5.25;;
73428;SDS011;61643;49.564;17.412;2024-01-15T10:08:56;16.00;;;5.63;;
73428;SDS011;61643;49.564;17.412;2024-01-15T10:11:23;11.77;;;4.65;;
73428;SDS011;61643;49.564;17.412;2024-01-15T10:13:49;11.10;;;5.03;;
73428;SDS011;61643;49.564;17.412;2024-01-15T10:16:20;11.68;;;4.32;;
73428;SDS011;61643;49.564;17.412;2024-01-15T10:18:47;11.95;;;4.85;;
73428;SDS011;61643;49.564;17.412;2024-01-15T10:21:14;11.73;;;5.00;;
73428;SDS011;61643;49.564;17.412;2024-01-15T10:23:44;12.45;;;5.45;;
73428;SDS011;61643;49.564;17.412;2024-01-15T10:26:10;11.23;;;4.75;;
73428;SDS011;61643;49.564;17.412;2024-01-15T10:28:37;9.93;;;4.47;;
73428;SDS011;61643;49.564;17.412;2024-01-15T10:31:03;10.88;;;4.65;;
73428;SDS011;61643;49.564;17.412;2024-01-15T10:33:30;12.35;;;5.03;;
73428;SDS011;61643;49.564;17.412;2024-01-15T10:35:57;10.15;;;4.55;;
73428;SDS011;61643;49.564;17.412;2024-01-15T10:38:25;9.93;;;3.95;;
73428;SDS011;61643;49.564;17.412;2024-01-15T10:40:55;9.68;;;4.13;;
73428;SDS011;61643;49.564;17.412;2024-01-15T10:43:22;10.75;;;4.43;;
73428;SDS011;61643;49.564;17.412;2024-01-15T10:45:49;9.88;;;4.55;;
73428;SDS011;61643;49.564;17.412;2024-01-15T10:48:16;8.55;;;3.50;;
73428;SDS011;61643;49.564;17.412;2024-01-15T10:50:44;10.48;;;3.55;;
73428;SDS011;61643;49.564;17.412;2024-01-15T10:53:11;11.00;;;3.90;;
73428;SDS011;61643;49.564;17.412;2024-01-15T10:55:39;9.32;;;3.42;;
73428;SDS011;61643;49.564;17.412;2024-01-15T10:58:06;6.70;;;3.42;;
73428;SDS011;61643;49.564;17.412;2024-01-15T11:00:35;8.57;;;4.10;;
73428;SDS011;61643;49.564;17.412;2024-01-15T11:03:03;11.43;;;4.18;;
73428;SDS011;61643;49.564;17.412;2024-01-15T11:05:43;6.93;;;3.42;;
73428;SDS011;61643;49.564;17.412;2024-01-15T11:08:10;11.25;;;4.13;;
73428;SDS011;61643;49.564;17.412;2024-01-15T11:18:40;10.25;;;3.65;;
73428;SDS011;61643;49.564;17.412;2024-01-15T11:23:46;8.07;;;3.28;;
73428;SDS011;61643;49.564;17.412;2024-01-15T11:29:42;11.30;;;3.85;;
73428;SDS011;61643;49.564;17.412;2024-01-15T11:34:49;8.15;;;2.75;;
73428;SDS011;61643;49.564;17.412;2024-01-15T11:37:24;11.48;;;3.60;;
73428;SDS011;61643;49.564;17.412;2024-01-15T11:39:55;9.30;;;3.25;;
73428;SDS011;61643;49.564;17.412;2024-01-15T11:42:26;5.97;;;2.65;;
73428;SDS011;61643;49.564;17.412;2024-01-15T11:44:53;8.77;;;3.67;;
73428;SDS011;61643;49.564;17.412;2024-01-15T11:47:36;5.78;;;2.63;;
73428;SDS011;61643;49.564;17.412;2024-01-15T11:50:13;8.65;;;3.20;;
73428;SDS011;61643;49.564;17.412;2024-01-15T11:52:40;7.13;;;2.70;;
73428;SDS011;61643;49.564;17.412;2024-01-15T11:57:51;8.75;;;3.28;;
73428;SDS011;61643;49.564;17.412;2024-01-15T12:00:20;7.90;;;3.15;;
73428;SDS011;61643;49.564;17.412;2024-01-15T12:02:47;7.22;;;3.05;;
73428;SDS011;61643;49.564;17.412;2024-01-15T12:05:14;5.90;;;2.83;;
73428;SDS011;61643;49.564;17.412;2024-01-15T12:07:42;6.30;;;2.35;;
73428;SDS011;61643;49.564;17.412;2024-01-15T12:10:16;6.22;;;2.60;;
73428;SDS011;61643;49.564;17.412;2024-01-15T12:15:24;5.55;;;2.80;;
73428;SDS011;61643;49.564;17.412;2024-01-15T12:17:52;6.03;;;2.85;;
73428;SDS011;61643;49.564;17.412;2024-01-15T12:20:19;6.40;;;2.70;;
73428;SDS011;61643;49.564;17.412;2024-01-15T12:22:45;6.32;;;3.05;;
73428;SDS011;61643;49.564;17.412;2024-01-15T12:25:11;6.53;;;2.80;;
73428;SDS011;61643;49.564;17.412;2024-01-15T12:27:37;6.97;;;2.72;;
73428;SDS011;61643;49.564;17.412;2024-01-15T12:30:04;6.85;;;2.95;;
73428;SDS011;61643;49.564;17.412;2024-01-15T12:32:30;6.38;;;2.65;;
73428;SDS011;61643;49.564;17.412;2024-01-15T12:34:56;6.60;;;2.40;;
73428;SDS011;61643;49.564;17.412;2024-01-15T12:37:22;7.47;;;3.08;;
73428;SDS011;61643;49.564;17.412;2024-01-15T12:39:51;6.57;;;2.85;;
73428;SDS011;61643;49.564;17.412;2024-01-15T12:42:17;4.78;;;2.40;;
73428;SDS011;61643;49.564;17.412;2024-01-15T12:44:46;7.88;;;3.03;;
73428;SDS011;61643;49.564;17.412;2024-01-15T12:47:12;7.35;;;2.40;;
73428;SDS011;61643;49.564;17.412;2024-01-15T12:49:39;6.45;;;3.10;;
73428;SDS011;61643;49.564;17.412;2024-01-15T12:52:08;7.38;;;3.13;;
73428;SDS011;61643;49.564;17.412;2024-01-15T12:54:34;6.05;;;2.63;;
73428;SDS011;61643;49.564;17.412;2024-01-15T12:57:00;6.47;;;2.88;;
73428;SDS011;61643;49.564;17.412;2024-01-15T12:59:26;6.53;;;2.42;;
73428;SDS011;61643;49.564;17.412;2024-01-15T13:01:52;7.35;;;3.05;;
73428;SDS011;61643;49.564;17.412;2024-01-15T13:04:22;5.18;;;2.42;;
73428;SDS011;61643;49.564;17.412;2024-01-15T13:06:49;5.93;;;2.28;;
73428;SDS011;61643;49.564;17.412;2024-01-15T13:09:15;6.75;;;2.80;;
73428;SDS011;61643;49.564;17.412;2024-01-15T13:11:43;5.60;;;2.83;;
73428;SDS011;61643;49.564;17.412;2024-01-15T13:14:12;5.90;;;2.60;;
73428;SDS011;61643;49.564;17.412;2024-01-15T13:16:41;6.00;;;2.42;;
73428;SDS011;61643;49.564;17.412;2024-01-15T13:19:08;5.18;;;2.17;;
73428;SDS011;61643;49.564;17.412;2024-01-15T13:21:37;4.63;;;2.25;;
73428;SDS011;61643;49.564;17.412;2024-01-15T13:24:03;6.53;;;2.75;;
73428;SDS011;61643;49.564;17.412;2024-01-15T13:26:34;5.95;;;2.35;;
73428;SDS011;61643;49.564;17.412;2024-01-15T13:29:03;4.60;;;2.55;;
73428;SDS011;61643;49.564;17.412;2024-01-15T13:31:30;6.82;;;2.95;;
73428;SDS011;61643;49.564;17.412;2024-01-15T13:33:57;6.45;;;2.63;;
73428;SDS011;61643;49.564;17.412;2024-01-15T13:36:23;6.03;;;2.70;;
73428;SDS011;61643;49.564;17.412;2024-01-15T13:38:50;4.40;;;2.60;;
73428;SDS011;61643;49.564;17.412;2024-01-15T13:41:17;8.35;;;2.92;;
73428;SDS011;61643;49.564;17.412;2024-01-15T13:44:09;4.68;;;2.50;;
73428;SDS011;61643;49.564;17.412;2024-01-15T13:46:36;10.88;;;3.08;;
73428;SDS011;61643;49.564;17.412;2024-01-15T13:49:02;4.97;;;2.70;;
73428;SDS011;61643;49.564;17.412;2024-01-15T13:51:27;4.38;;;2.65;;
73428;SDS011;61643;49.564;17.412;2024-01-15T13:53:53;3.95;;;1.80;;
73428;SDS011;61643;49.564;17.412;2024-01-15T13:56:19;6.13;;;2.50;;
73428;SDS011;61643;49.564;17.412;2024-01-15T13:58:46;5.50;;;2.25;;
73428;SDS011;61643;49.564;17.412;2024-01-15T14:01:13;7.03;;;2.35;;
73428;SDS011;61643;49.564;17.412;2024-01-15T14:03:39;7.45;;;2.92;;
73428;SDS011;61643;49.564;17.412;2024-01-15T14:06:05;5.13;;;2.15;;
73428;SDS011;61643;49.564;17.412;2024-01-15T14:08:34;6.47;;;2.38;;
73428;SDS011;61643;49.564;17.412;2024-01-15T14:11:02;6.88;;;2.35;;
73428;SDS011;61643;49.564;17.412;2024-01-15T14:13:29;4.30;;;1.95;;
73428;SDS011;61643;49.564;17.412;2024-01-15T14:15:55;5.75;;;2.30;;
73428;SDS011;61643;49.564;17.412;2024-01-15T14:18:21;4.32;;;2.08;;
73428;SDS011;61643;49.564;17.412;2024-01-15T14:20:47;5.63;;;2.05;;
73428;SDS011;61643;49.564;17.412;2024-01-15T14:23:13;6.13;;;2.15;;
73428;SDS011;61643;49.564;17.412;2024-01-15T14:25:39;4.47;;;2.08;;
73428;SDS011;61643;49.564;17.412;2024-01-15T14:28:05;4.18;;;2.22;;
73428;SDS011;61643;49.564;17.412;2024-01-15T14:30:32;5.63;;;2.30;;
73428;SDS011;61643;49.564;17.412;2024-01-15T14:32:58;6.25;;;2.58;;
73428;SDS011;61643;49.564;17.412;2024-01-15T14:35:24;3.55;;;2.13;;
73428;SDS011;61643;49.564;17.412;2024-01-15T14:37:50;4.55;;;2.33;;
73428;SDS011;61643;49.564;17.412;2024-01-15T14:40:16;8.57;;;2.22;;
73428;SDS011;61643;49.564;17.412;2024-01-15T14:42:42;6.72;;;2.30;;
73428;SDS011;61643;49.564;17.412;2024-01-15T14:45:08;6.88;;;2.72;;
73428;SDS011;61643;49.564;17.412;2024-01-15T14:47:37;6.25;;;2.88;;